Desert Rock Airport
KDRA : now visible

Airfield :











YOU CAN JOIN US ON...

 
LOGIN :

Register | Disclaimer

   EN    FR    IT 

 









Legend :    VFR   Marginal VFR   IFR   Intensive IFR   Very Intensive IFR
Visi :
Ceiling :
>= 8 km
>= 3000ft
5 to 8 km
1000 to 3000 ft
1500m to 5 km
500 to 1000 ft
800 to 1500m
200 to 500 ft
< 800m
< 200 ft
Symbols :   Thunderstorms  Fog  Heavy snow  Heavy precipitations  Wind > 20 kt






- Airport Elevation : 3314 ft


KDRA - Desert Rock

CURRENT METAR :
  • 090053Z AUTO 22018G27KT 10SM CLR 36/M17 A2981 RMK AO2 PK WND 22027/0026 SLP040 T03561167

EXPIRED METARs :
  • 082353Z AUTO 23020G28KT 10SM CLR 37/M17 A2981 RMK AO2 PK WND 22028/2352 SLP040 T03671167 10378 20311 56018
  • 082253Z AUTO 22017G26KT 10SM CLR 37/M19 A2983 RMK AO2 PK WND 23030/2155 SLP045 T03721194

Expired Forecast.



MET'MAP, your aeronautical weather chart ! - Copyright ORBIFLY December 2007 - Disclaimer

ORBIFLY MET'MAP TEAM :

Programming & Development : Alexandra Zaïnal
Concept & original design : Baudouin d'Aumeries
Assistance for programming : Marc-Olivier Méhu
Technical & hardware support : Manuel Goepfert

Contact : metmap@orbifly.com




SOURCES & CREDITS :

   NOAA       Earth
Advisory